Time;durP1;ratioP1;P1;durP2;ratioP2;P2;SDS_P1;SDS_P2;PMS_P1;PMS_P2;Temp;Humidity;BMP_temperature;BMP_pressure;BME280_temperature;BME280_humidity;BME280_pressure;Samples;Min_cycle;Max_cycle;Signal;HPM_P1;HPM_P2
2022/05/12 00:01:10;;;;;;;4.00;1.20;;;22.30;57.40;;;;;;5076306;28;20021;-40
2022/05/12 00:03:36;;;;;;;2.22;1.40;;;22.20;56.40;;;;;;5092992;28;20084;-38
2022/05/12 00:06:03;;;;;;;1.52;1.15;;;22.20;55.90;;;;;;5097583;28;20499;-38
2022/05/12 00:08:29;;;;;;;3.08;1.60;;;22.20;55.10;;;;;;5091559;28;20036;-39
2022/05/12 00:10:55;;;;;;;2.63;1.20;;;22.20;54.60;;;;;;5094460;28;20028;-38
2022/05/12 00:13:21;;;;;;;1.48;1.35;;;22.20;53.80;;;;;;5104027;28;20396;-37
2022/05/12 00:15:48;;;;;;;3.03;1.23;;;22.10;53.30;;;;;;5088689;28;20024;-37
2022/05/12 00:18:14;;;;;;;3.45;1.40;;;22.10;53.10;;;;;;5092056;28;20089;-36
2022/05/12 00:20:41;;;;;;;1.70;1.13;;;22.10;53.60;;;;;;5078011;28;20024;-34
2022/05/12 00:23:15;;;;;;;3.40;1.80;;;22.10;54.70;;;;;;5077114;28;20390;-34
2022/05/12 00:25:43;;;;;;;3.45;1.50;;;22.00;55.00;;;;;;5066829;28;20037;-34
2022/05/12 00:28:09;;;;;;;2.55;1.48;;;22.00;55.40;;;;;;5080100;28;20030;-34
2022/05/12 00:30:35;;;;;;;2.05;1.40;;;22.00;55.60;;;;;;5083487;28;20056;-35
2022/05/12 00:33:01;;;;;;;2.30;1.50;;;21.90;55.50;;;;;;5078180;28;20088;-35
2022/05/12 00:35:27;;;;;;;3.60;1.40;;;21.90;55.60;;;;;;5073882;28;20032;-35
2022/05/12 00:37:54;;;;;;;3.58;1.40;;;21.90;55.50;;;;;;5065415;28;20028;-34
2022/05/12 00:40:20;;;;;;;5.28;1.33;;;21.90;56.00;;;;;;5075223;28;20025;-35
2022/05/12 00:42:57;;;;;;;2.17;1.27;;;21.90;55.50;;;;;;5068613;28;20024;-35
2022/05/12 00:45:23;;;;;;;1.97;1.27;;;21.80;55.40;;;;;;5089122;28;20125;-35
2022/05/12 00:47:49;;;;;;;2.20;1.30;;;21.80;55.40;;;;;;5073830;28;20573;-35
2022/05/12 00:50:16;;;;;;;1.63;1.40;;;21.80;55.40;;;;;;5067423;28;20101;-34
2022/05/12 00:52:42;;;;;;;1.58;1.13;;;21.70;55.20;;;;;;5080441;28;20024;-35
2022/05/12 00:55:25;;;;;;;2.17;1.30;;;21.80;55.30;;;;;;5073074;28;20041;-35
2022/05/12 00:57:52;;;;;;;1.52;1.20;;;21.70;55.10;;;;;;5070526;28;20017;-35
2022/05/12 01:00:19;;;;;;;1.63;0.90;;;21.70;55.10;;;;;;5099173;27;20041;-35
2022/05/12 01:02:46;;;;;;;0.98;0.82;;;21.70;55.00;;;;;;5082615;28;20087;-35
2022/05/12 01:05:12;;;;;;;1.42;1.10;;;21.70;55.00;;;;;;5063542;28;20095;-35
2022/05/12 01:07:38;;;;;;;1.60;1.13;;;21.60;55.00;;;;;;5074733;28;20087;-35
2022/05/12 01:10:05;;;;;;;1.95;1.33;;;21.60;54.90;;;;;;5074555;28;20523;-35
2022/05/12 01:12:31;;;;;;;1.48;1.08;;;21.60;55.00;;;;;;5070751;28;20025;-35
2022/05/12 01:14:58;;;;;;;1.17;1.00;;;21.60;55.00;;;;;;5074374;28;20066;-35
2022/05/12 01:17:24;;;;;;;1.80;1.30;;;21.50;54.90;;;;;;5073926;28;20300;-35
2022/05/12 01:19:54;;;;;;;1.38;1.08;;;21.50;54.90;;;;;;5088571;28;20055;-35
2022/05/12 01:23:08;;;;;;;1.30;0.90;;;21.50;54.90;;;;;;5078259;28;20575;-35
2022/05/12 01:25:34;;;;;;;1.23;1.08;;;21.40;54.80;;;;;;5063555;28;20051;-35
2022/05/12 01:28:00;;;;;;;1.40;1.10;;;21.40;54.80;;;;;;5072084;28;20033;-34
2022/05/12 01:30:26;;;;;;;1.30;1.00;;;21.40;54.90;;;;;;5083019;28;20072;-36
2022/05/12 01:32:53;;;;;;;1.23;1.13;;;21.30;54.80;;;;;;5076796;28;20075;-35
2022/05/12 01:35:21;;;;;;;1.23;0.90;;;21.30;54.90;;;;;;5082471;28;20031;-34
2022/05/12 01:37:47;;;;;;;1.40;1.30;;;21.30;54.90;;;;;;5084584;28;20096;-35
2022/05/12 01:40:15;;;;;;;1.00;0.90;;;21.30;54.90;;;;;;5082568;28;20807;-35
2022/05/12 01:42:41;;;;;;;1.67;1.00;;;21.30;55.00;;;;;;5063120;28;20827;-35
2022/05/12 01:45:08;;;;;;;2.03;1.15;;;21.30;55.00;;;;;;5067216;28;20040;-35
2022/05/12 01:47:35;;;;;;;3.70;1.08;;;21.30;55.00;;;;;;5073880;28;20035;-34
2022/05/12 01:50:02;;;;;;;1.42;1.05;;;21.30;55.00;;;;;;5067374;28;20064;-34
2022/05/12 01:52:28;;;;;;;1.63;1.00;;;21.30;55.00;;;;;;5075397;28;20024;-35
2022/05/12 01:54:55;;;;;;;1.75;1.10;;;21.30;55.10;;;;;;5077501;28;20024;-35
2022/05/12 01:57:22;;;;;;;1.65;1.13;;;21.30;55.30;;;;;;5073086;28;20032;-35
2022/05/12 01:59:49;;;;;;;2.88;1.17;;;21.30;55.20;;;;;;5073174;28;20052;-34
2022/05/12 02:02:15;;;;;;;2.33;1.05;;;21.30;55.30;;;;;;5079235;28;20013;-33
2022/05/12 02:04:42;;;;;;;1.45;1.23;;;21.30;55.30;;;;;;5079045;28;20105;-34
2022/05/12 02:07:08;;;;;;;1.20;1.10;;;21.30;55.30;;;;;;5067828;28;20025;-34
2022/05/12 02:09:35;;;;;;;1.40;1.10;;;21.30;55.40;;;;;;5074945;28;20883;-35
2022/05/12 02:12:01;;;;;;;1.40;1.00;;;21.30;55.40;;;;;;5076346;28;20300;-35
2022/05/12 02:14:27;;;;;;;2.63;1.02;;;21.30;55.50;;;;;;5079128;28;20036;-34
2022/05/12 02:16:53;;;;;;;1.77;1.10;;;21.30;55.50;;;;;;5082336;28;20052;-34
2022/05/12 02:19:20;;;;;;;3.17;1.23;;;21.30;55.50;;;;;;5074354;28;20125;-36
2022/05/12 02:21:46;;;;;;;1.17;1.00;;;21.40;55.60;;;;;;5064971;28;20397;-32
2022/05/12 02:24:12;;;;;;;1.85;1.15;;;21.40;55.70;;;;;;5074633;28;20048;-35
2022/05/12 02:26:38;;;;;;;1.10;1.00;;;21.40;55.70;;;;;;5065594;28;20032;-35
2022/05/12 02:29:04;;;;;;;2.13;0.88;;;21.40;55.70;;;;;;5081995;28;20044;-35
2022/05/12 02:31:31;;;;;;;1.20;0.90;;;21.40;55.70;;;;;;5084371;28;20050;-33
2022/05/12 02:33:57;;;;;;;1.40;1.10;;;21.40;55.70;;;;;;5070386;28;20039;-35
2022/05/12 02:36:23;;;;;;;0.93;0.93;;;21.40;55.70;;;;;;5077027;28;20033;-33
2022/05/12 02:38:49;;;;;;;1.23;1.00;;;21.50;55.70;;;;;;5079884;28;20178;-32
2022/05/12 02:41:15;;;;;;;1.45;1.05;;;21.50;55.70;;;;;;5067109;28;20028;-35
2022/05/12 02:43:41;;;;;;;1.48;0.90;;;21.50;55.70;;;;;;5080735;28;20680;-34
2022/05/12 02:46:09;;;;;;;1.67;1.00;;;21.50;55.80;;;;;;5060694;28;20036;-35
2022/05/12 02:48:37;;;;;;;1.40;0.90;;;21.50;55.70;;;;;;5087475;28;20059;-34
2022/05/12 02:51:03;;;;;;;2.78;1.00;;;21.50;55.70;;;;;;5069877;28;20424;-36
2022/05/12 02:53:29;;;;;;;3.42;1.33;;;21.50;55.70;;;;;;5075349;28;20043;-33
2022/05/12 02:55:56;;;;;;;0.93;0.82;;;21.60;56.20;;;;;;5068547;28;20025;-33
2022/05/12 02:58:22;;;;;;;1.20;1.10;;;21.60;55.70;;;;;;5081774;28;20062;-33
2022/05/12 03:00:48;;;;;;;1.30;1.20;;;21.60;55.60;;;;;;5077163;28;20080;-33
2022/05/12 03:03:14;;;;;;;1.25;1.15;;;21.60;55.60;;;;;;5080886;28;20051;-34
2022/05/12 03:05:40;;;;;;;1.10;1.00;;;21.60;55.60;;;;;;5084043;28;20035;-35
2022/05/12 03:08:07;;;;;;;0.82;0.80;;;21.70;55.60;;;;;;5081070;28;20043;-34
2022/05/12 03:10:33;;;;;;;1.60;1.13;;;21.70;55.60;;;;;;5077913;28;20024;-34
2022/05/12 03:12:59;;;;;;;0.82;0.80;;;21.70;55.60;;;;;;5078547;28;20059;-34
2022/05/12 03:15:26;;;;;;;2.55;0.98;;;21.70;55.60;;;;;;5078652;28;20033;-35
2022/05/12 03:17:52;;;;;;;1.33;1.15;;;21.70;55.60;;;;;;5072683;28;20041;-35
2022/05/12 03:20:20;;;;;;;2.45;1.02;;;21.70;55.60;;;;;;5074298;28;20047;-35
2022/05/12 03:22:47;;;;;;;1.13;1.02;;;21.70;55.60;;;;;;5070905;28;20029;-34
2022/05/12 03:25:14;;;;;;;1.83;1.00;;;21.70;55.50;;;;;;5066659;28;20092;-35
2022/05/12 03:27:41;;;;;;;3.67;1.00;;;21.70;55.50;;;;;;5068963;28;20029;-43
2022/05/12 03:30:10;;;;;;;1.00;0.90;;;21.80;55.60;;;;;;5072467;28;20056;-44
2022/05/12 03:32:36;;;;;;;1.27;1.10;;;21.80;55.50;;;;;;5078100;28;20033;-43
2022/05/12 03:35:06;;;;;;;1.67;1.10;;;21.80;55.40;;;;;;5077192;28;20033;-42
2022/05/12 03:37:33;;;;;;;1.25;0.80;;;21.80;55.40;;;;;;5068302;28;20052;-41
2022/05/12 03:39:59;;;;;;;1.75;1.20;;;21.80;55.50;;;;;;5072236;28;20037;-45
2022/05/12 03:42:25;;;;;;;1.30;1.20;;;21.80;55.50;;;;;;5067134;28;20057;-42
2022/05/12 03:44:54;;;;;;;6.40;1.30;;;21.80;55.40;;;;;;5086758;28;20044;-37
2022/05/12 03:47:28;;;;;;;2.60;1.20;;;21.80;55.50;;;;;;5077096;28;20067;-35
2022/05/12 03:49:57;;;;;;;2.10;1.20;;;21.80;55.30;;;;;;5065873;28;20032;-35
2022/05/12 03:52:23;;;;;;;1.13;1.02;;;21.90;55.30;;;;;;5072565;28;20055;-35
2022/05/12 03:54:49;;;;;;;1.50;1.17;;;21.90;55.20;;;;;;5070440;28;20036;-35
2022/05/12 03:57:16;;;;;;;2.67;1.00;;;21.90;55.20;;;;;;5069372;28;21912;-36
2022/05/12 03:59:42;;;;;;;2.17;1.20;;;21.90;55.20;;;;;;5072450;28;20108;-36
2022/05/12 04:02:10;;;;;;;3.75;1.30;;;21.90;55.20;;;;;;5073519;28;20029;-35
2022/05/12 04:04:36;;;;;;;5.30;1.52;;;21.90;55.20;;;;;;5069779;28;20033;-35
2022/05/12 04:07:02;;;;;;;2.00;1.25;;;21.90;55.10;;;;;;5068386;28;20029;-35
2022/05/12 04:09:29;;;;;;;3.33;1.00;;;21.90;55.10;;;;;;5076011;28;20028;-35
2022/05/12 04:11:55;;;;;;;3.28;1.02;;;21.90;55.00;;;;;;5080912;28;20115;-36
2022/05/12 04:14:42;;;;;;;1.92;1.30;;;21.90;55.10;;;;;;5071263;28;20041;-35
2022/05/12 04:17:10;;;;;;;6.28;1.13;;;22.00;55.10;;;;;;5070047;28;20060;-34
2022/05/12 04:19:37;;;;;;;3.63;1.23;;;22.00;55.10;;;;;;5059924;28;20052;-34
2022/05/12 04:22:03;;;;;;;3.03;1.08;;;22.00;55.20;;;;;;5072548;28;20020;-34
2022/05/12 04:24:30;;;;;;;2.88;1.23;;;22.00;55.20;;;;;;5067556;28;20064;-34
2022/05/12 04:26:56;;;;;;;2.97;1.20;;;22.00;55.00;;;;;;5069270;28;20095;-34
2022/05/12 04:29:22;;;;;;;2.75;1.13;;;22.00;55.00;;;;;;5071515;28;20545;-34
2022/05/12 04:31:48;;;;;;;1.20;1.10;;;22.00;54.90;;;;;;5068313;28;20194;-34
2022/05/12 04:36:59;;;;;;;2.75;1.42;;;22.00;54.80;;;;;;5070821;28;20144;-34
2022/05/12 04:39:25;;;;;;;1.42;1.23;;;22.00;54.80;;;;;;5072633;28;20075;-35
2022/05/12 04:41:51;;;;;;;5.80;1.30;;;22.00;54.80;;;;;;5068835;28;20039;-34
2022/05/12 04:44:19;;;;;;;3.25;1.23;;;22.00;54.80;;;;;;5069888;28;20033;-34
2022/05/12 04:46:45;;;;;;;3.35;1.50;;;22.00;54.80;;;;;;5062475;28;20155;-34
2022/05/12 04:49:13;;;;;;;3.17;1.30;;;22.00;54.70;;;;;;5058963;28;20568;-34
2022/05/12 04:51:39;;;;;;;1.67;1.20;;;22.00;54.70;;;;;;5073271;28;20056;-34
2022/05/12 04:54:14;;;;;;;1.98;1.20;;;22.00;54.70;;;;;;5081866;28;20033;-34
2022/05/12 04:56:41;;;;;;;1.42;1.27;;;22.00;54.60;;;;;;5081312;28;20036;-34
2022/05/12 04:59:07;;;;;;;2.03;1.17;;;22.00;54.60;;;;;;5078067;28;20033;-34
2022/05/12 05:01:34;;;;;;;3.15;1.23;;;22.00;54.60;;;;;;5081041;28;20032;-34
2022/05/12 05:04:00;;;;;;;1.60;1.27;;;22.00;54.60;;;;;;5079853;28;20020;-34
2022/05/12 05:06:30;;;;;;;1.87;1.00;;;22.00;54.50;;;;;;5078510;28;20024;-34
2022/05/12 05:08:56;;;;;;;2.45;1.40;;;22.00;54.50;;;;;;5075581;28;20055;-34
2022/05/12 05:11:22;;;;;;;2.83;1.30;;;22.00;54.50;;;;;;5082073;28;20029;-34
2022/05/12 05:13:48;;;;;;;1.15;1.05;;;22.00;54.40;;;;;;5080080;28;20025;-34
2022/05/12 05:16:15;;;;;;;2.17;1.10;;;22.00;54.40;;;;;;5080877;28;20035;-34
2022/05/12 05:18:42;;;;;;;1.70;1.40;;;22.00;54.40;;;;;;5083400;28;20056;-34
2022/05/12 05:21:10;;;;;;;3.80;1.50;;;22.00;54.40;;;;;;5081784;28;20058;-34
2022/05/12 05:23:36;;;;;;;1.35;1.25;;;22.10;54.50;;;;;;5081792;28;20039;-34
2022/05/12 05:26:02;;;;;;;2.07;1.40;;;22.00;54.40;;;;;;5081032;28;20063;-33
2022/05/12 05:28:28;;;;;;;1.35;1.25;;;22.00;54.40;;;;;;5078031;28;20053;-33
2022/05/12 05:30:55;;;;;;;1.67;1.30;;;22.00;54.50;;;;;;5080000;28;20056;-33
2022/05/12 05:33:21;;;;;;;1.85;1.35;;;22.00;54.40;;;;;;5078991;28;20029;-33
2022/05/12 05:35:47;;;;;;;1.50;1.40;;;22.10;54.50;;;;;;5082157;28;20146;-33
2022/05/12 05:38:13;;;;;;;2.08;1.20;;;22.00;54.40;;;;;;5080372;28;20409;-33
2022/05/12 05:40:39;;;;;;;2.85;1.40;;;22.00;54.40;;;;;;5081935;28;20058;-33
2022/05/12 05:43:06;;;;;;;1.98;1.40;;;22.00;54.40;;;;;;5077774;28;20028;-33
2022/05/12 05:45:33;;;;;;;1.90;1.35;;;22.00;54.40;;;;;;5079985;28;20086;-33
2022/05/12 05:48:02;;;;;;;1.55;1.27;;;22.00;54.40;;;;;;5080685;28;20036;-33
2022/05/12 05:53:23;;;;;;;1.70;1.20;;;22.00;54.40;;;;;;5080218;28;20041;-33
2022/05/12 05:53:25;;;;;;;1.65;1.52;;;22.00;54.50;;;;;;5080214;28;20516;-33
2022/05/12 05:55:52;;;;;;;1.33;1.23;;;22.00;54.50;;;;;;5081488;28;20029;-35
2022/05/12 05:58:18;;;;;;;;;;;22.00;54.50;;;;;;5082927;28;20047;-34
2022/05/12 06:00:45;;;;;;;1.50;1.40;;;22.00;54.50;;;;;;5083598;28;19924;-33
2022/05/12 06:03:11;;;;;;;;;;;22.00;54.50;;;;;;5085481;28;20059;-33
2022/05/12 06:05:37;;;;;;;2.00;1.48;;;22.00;54.50;;;;;;5083777;28;19928;-34
2022/05/12 06:08:04;;;;;;;3.92;1.50;;;22.00;54.60;;;;;;5084220;28;20025;-34
2022/05/12 06:10:30;;;;;;;1.38;1.27;;;22.00;54.60;;;;;;5083108;28;20074;-34
2022/05/12 06:12:56;;;;;;;1.30;1.20;;;22.00;54.60;;;;;;5084280;28;20091;-34
2022/05/12 06:15:23;;;;;;;1.70;1.40;;;22.00;54.60;;;;;;5083177;28;20036;-34
2022/05/12 06:17:49;;;;;;;1.70;1.33;;;22.00;54.60;;;;;;5084351;28;20045;-34
2022/05/12 06:20:16;;;;;;;1.70;1.50;;;22.00;54.60;;;;;;5084694;28;20056;-35
2022/05/12 06:22:43;;;;;;;2.10;1.50;;;22.00;54.60;;;;;;5084151;28;20017;-34
2022/05/12 06:25:10;;;;;;;;;;;22.00;54.60;;;;;;5084771;28;20050;-34
2022/05/12 06:27:36;;;;;;;1.70;1.60;;;22.00;54.70;;;;;;5084036;28;19933;-34
2022/05/12 06:30:04;;;;;;;1.60;1.50;;;22.00;54.70;;;;;;5084450;28;20062;-34
2022/05/12 06:32:30;;;;;;;1.65;1.55;;;22.00;54.70;;;;;;5083582;28;20025;-34
2022/05/12 06:34:56;;;;;;;2.30;1.70;;;22.00;54.70;;;;;;5083314;28;20032;-34
2022/05/12 06:37:23;;;;;;;2.22;1.67;;;22.00;54.70;;;;;;5080630;28;20316;-34
2022/05/12 06:39:49;;;;;;;2.40;1.70;;;21.90;54.80;;;;;;5084000;28;20040;-34
2022/05/12 06:42:15;;;;;;;2.13;1.60;;;22.00;54.80;;;;;;5084400;28;20088;-33
2022/05/12 06:44:42;;;;;;;1.58;1.38;;;21.90;54.80;;;;;;5083281;28;20096;-33
2022/05/12 06:47:09;;;;;;;;;;;21.90;54.80;;;;;;5085594;28;20030;-34
2022/05/12 06:49:35;;;;;;;1.48;1.38;;;22.00;54.90;;;;;;5083227;28;19944;-34
2022/05/12 06:52:05;;;;;;;1.95;1.60;;;21.90;54.90;;;;;;5085394;28;20024;-33
2022/05/12 06:54:32;;;;;;;2.38;1.88;;;21.90;54.90;;;;;;5082767;28;20832;-34
2022/05/12 06:56:58;;;;;;;2.25;1.90;;;21.90;54.90;;;;;;5082224;28;20031;-34
2022/05/12 06:59:24;;;;;;;3.03;1.92;;;21.90;54.90;;;;;;5084239;28;20036;-34
2022/05/12 07:01:51;;;;;;;1.85;1.60;;;21.90;55.00;;;;;;5082190;28;20081;-34
2022/05/12 07:04:18;;;;;;;1.70;1.60;;;21.90;55.00;;;;;;5084410;28;20044;-34
2022/05/12 07:06:45;;;;;;;1.98;1.75;;;21.90;55.00;;;;;;5079971;28;20024;-34
2022/05/12 07:09:11;;;;;;;1.75;1.48;;;21.90;55.00;;;;;;5083190;28;20028;-34
2022/05/12 07:11:37;;;;;;;1.67;1.58;;;21.90;55.00;;;;;;5083129;28;20716;-33
2022/05/12 07:14:03;;;;;;;2.22;1.77;;;21.90;55.00;;;;;;5081826;28;20131;-34
2022/05/12 07:16:29;;;;;;;2.03;1.85;;;21.90;55.00;;;;;;5081072;28;20544;-34
2022/05/12 07:18:56;;;;;;;1.75;1.65;;;21.90;55.00;;;;;;5083530;28;20052;-35
2022/05/12 07:26:52;;;;;;;2.05;1.83;;;21.90;55.00;;;;;;5081295;28;20031;-34
2022/05/12 07:29:20;;;;;;;2.55;1.88;;;21.90;55.00;;;;;;5079731;28;20122;-33
2022/05/12 07:31:49;;;;;;;2.17;1.58;;;21.80;55.00;;;;;;5083887;28;20032;-34
2022/05/12 07:34:16;;;;;;;1.80;1.70;;;21.80;55.00;;;;;;5080091;28;20040;-33
2022/05/12 07:36:44;;;;;;;3.72;1.95;;;21.80;55.00;;;;;;5083957;28;21305;-33
2022/05/12 07:39:12;;;;;;;2.42;1.77;;;21.80;55.10;;;;;;5083132;28;20032;-33
2022/05/12 07:41:41;;;;;;;2.20;1.65;;;21.80;55.00;;;;;;5083300;28;20043;-33
2022/05/12 07:44:09;;;;;;;2.25;1.75;;;21.80;55.00;;;;;;5080911;28;20032;-33
2022/05/12 07:46:35;;;;;;;2.05;1.65;;;21.80;55.00;;;;;;5080219;28;20036;-33
2022/05/12 07:49:02;;;;;;;1.85;1.70;;;21.80;55.00;;;;;;5081972;28;20048;-33
2022/05/12 07:51:28;;;;;;;2.40;1.60;;;21.80;55.00;;;;;;5079884;28;20487;-33
2022/05/12 07:53:54;;;;;;;2.70;1.85;;;21.80;55.00;;;;;;5080678;28;20105;-33
2022/05/12 07:56:23;;;;;;;2.00;1.80;;;21.80;55.10;;;;;;5080292;28;20032;-33
2022/05/12 07:58:49;;;;;;;1.92;1.70;;;21.80;55.00;;;;;;5079254;28;20086;-33
2022/05/12 08:01:17;;;;;;;1.67;1.55;;;21.80;55.00;;;;;;5081705;28;21005;-34
2022/05/12 08:03:44;;;;;;;3.40;1.85;;;21.80;55.00;;;;;;5081341;28;20041;-34
2022/05/12 08:06:12;;;;;;;2.30;1.80;;;21.70;55.00;;;;;;5079607;28;20037;-34
2022/05/12 08:08:38;;;;;;;1.98;1.80;;;21.70;55.00;;;;;;5082206;28;20032;-34
2022/05/12 08:11:05;;;;;;;2.10;1.90;;;21.80;55.10;;;;;;5083098;28;20080;-34
2022/05/12 08:13:32;;;;;;;;;;;21.70;55.00;;;;;;5081706;28;20031;-34
2022/05/12 08:15:58;;;;;;;2.40;1.88;;;21.70;55.00;;;;;;5080592;28;19912;-34
2022/05/12 08:18:25;;;;;;;1.97;1.77;;;21.70;55.10;;;;;;5080242;28;20139;-34
2022/05/12 08:20:51;;;;;;;2.53;2.13;;;21.70;55.10;;;;;;5079383;28;20304;-34
2022/05/12 08:23:18;;;;;;;2.58;1.90;;;21.70;55.10;;;;;;5082161;28;20097;-34
2022/05/12 08:25:44;;;;;;;2.30;2.10;;;21.70;55.10;;;;;;5081249;28;20059;-34
2022/05/12 08:28:13;;;;;;;2.10;1.90;;;21.70;55.10;;;;;;5081782;28;20084;-34
2022/05/12 08:30:39;;;;;;;2.05;1.70;;;21.70;55.10;;;;;;5081834;28;20028;-34
2022/05/12 08:33:05;;;;;;;3.25;2.17;;;21.60;55.10;;;;;;5079974;28;20092;-34
2022/05/12 08:35:32;;;;;;;2.10;1.90;;;21.70;55.10;;;;;;5081059;28;20033;-34
2022/05/12 08:37:58;;;;;;;1.88;1.77;;;21.60;55.10;;;;;;5079743;28;20048;-34
2022/05/12 08:40:54;;;;;;;2.05;1.85;;;21.70;55.10;;;;;;5082087;28;20060;-34
2022/05/12 08:43:29;;;;;;;2.05;1.85;;;21.60;55.20;;;;;;5081499;28;20580;-34
2022/05/12 08:45:58;;;;;;;2.55;1.83;;;21.70;55.40;;;;;;5078442;28;20028;-34
2022/05/12 08:48:25;;;;;;;2.85;2.00;;;21.60;55.30;;;;;;5091651;28;20040;-34
2022/05/12 08:50:53;;;;;;;2.75;1.90;;;21.60;55.30;;;;;;5080554;28;20515;-34
2022/05/12 08:53:27;;;;;;;2.33;1.90;;;21.60;55.20;;;;;;5064416;28;20025;-34
2022/05/12 08:55:57;;;;;;;2.22;1.92;;;21.60;55.20;;;;;;5080302;28;20038;-34
2022/05/12 08:58:41;;;;;;;2.03;1.75;;;21.60;55.30;;;;;;5080835;28;20025;-34
2022/05/12 09:01:17;;;;;;;2.20;2.00;;;21.60;55.30;;;;;;5078264;28;20043;-34
2022/05/12 09:03:55;;;;;;;2.70;2.20;;;21.60;55.60;;;;;;5082095;28;20029;-34
2022/05/12 09:06:32;;;;;;;2.35;1.65;;;21.60;55.20;;;;;;5076987;28;20027;-34
2022/05/12 09:09:01;;;;;;;2.42;2.08;;;21.60;55.20;;;;;;5065819;28;20024;-33
2022/05/12 09:12:06;;;;;;;2.25;1.90;;;21.50;55.20;;;;;;5080882;28;20024;-34
2022/05/12 09:14:40;;;;;;;2.15;1.92;;;21.50;55.20;;;;;;5081029;28;20039;-34
2022/05/12 09:17:06;;;;;;;2.58;1.70;;;21.50;55.20;;;;;;5081721;28;20020;-34
2022/05/12 09:19:33;;;;;;;2.10;1.90;;;21.50;55.30;;;;;;5081834;28;20049;-34
2022/05/12 09:21:59;;;;;;;2.92;2.10;;;21.50;55.30;;;;;;5078588;28;20512;-34
2022/05/12 09:24:25;;;;;;;2.28;2.08;;;21.50;55.30;;;;;;5078681;28;20028;-34
2022/05/12 09:27:06;;;;;;;3.50;2.22;;;21.50;55.30;;;;;;5082037;28;20055;-34
2022/05/12 09:29:32;;;;;;;2.28;2.00;;;21.50;55.30;;;;;;5077241;28;20024;-34
2022/05/12 09:32:05;;;;;;;1.83;1.73;;;21.50;55.30;;;;;;5075946;28;20025;-34
2022/05/12 09:34:37;;;;;;;2.13;1.80;;;21.40;55.30;;;;;;5078707;28;20040;-34
2022/05/12 09:37:13;;;;;;;1.98;1.77;;;21.40;55.30;;;;;;5080441;28;20035;-32
2022/05/12 09:39:41;;;;;;;2.15;1.80;;;21.40;55.30;;;;;;5077534;28;20050;-35
2022/05/12 09:42:12;;;;;;;2.15;1.90;;;21.40;55.40;;;;;;5081737;28;20025;-33
2022/05/12 09:44:38;;;;;;;2.10;1.90;;;21.40;55.30;;;;;;5078166;28;20091;-34
2022/05/12 09:47:07;;;;;;;1.95;1.70;;;21.40;55.40;;;;;;5076545;28;20047;-34
2022/05/12 09:49:35;;;;;;;2.10;1.90;;;21.40;55.40;;;;;;5079888;28;20052;-34
2022/05/12 09:52:27;;;;;;;2.47;1.80;;;21.40;55.40;;;;;;5078888;28;20032;-34
2022/05/12 09:55:30;;;;;;;1.95;1.80;;;21.40;55.50;;;;;;5077555;28;20051;-34
2022/05/12 09:57:58;;;;;;;2.97;1.90;;;21.40;55.60;;;;;;5077461;28;20817;-34
2022/05/12 10:00:33;;;;;;;2.13;1.92;;;21.40;55.50;;;;;;5078638;28;20076;-34
2022/05/12 10:09:07;;;;;;;1.98;1.77;;;21.30;55.40;;;;;;5073781;28;20047;-33
2022/05/12 10:12:02;;;;;;;2.35;1.98;;;21.30;55.40;;;;;;5076642;28;20093;-34
2022/05/12 10:14:53;;;;;;;1.83;1.70;;;21.30;55.50;;;;;;5071942;28;20028;-34
2022/05/12 10:17:39;;;;;;;2.55;2.10;;;21.30;55.50;;;;;;5069639;28;20029;-33
2022/05/12 10:20:11;;;;;;;2.22;2.00;;;21.30;55.50;;;;;;5068637;28;20044;-35
2022/05/12 10:22:43;;;;;;;2.50;1.95;;;21.20;55.60;;;;;;5076771;28;20020;-35
2022/05/12 10:25:30;;;;;;;2.53;2.33;;;21.20;55.60;;;;;;5068657;28;20033;-35
2022/05/12 10:28:28;;;;;;;3.15;1.95;;;21.20;55.60;;;;;;5069440;28;20067;-35
2022/05/12 10:31:00;;;;;;;2.72;2.03;;;21.20;55.60;;;;;;5070273;28;20045;-35
2022/05/12 10:33:32;;;;;;;3.97;2.03;;;21.20;55.60;;;;;;5067792;28;20083;-37
2022/05/12 10:36:28;;;;;;;3.97;2.35;;;21.20;55.70;;;;;;5064391;28;20048;-35
2022/05/12 10:38:58;;;;;;;5.45;2.00;;;21.20;55.90;;;;;;5094245;28;20053;-36
2022/05/12 10:41:33;;;;;;;6.05;2.40;;;21.20;56.00;;;;;;5065660;28;20066;-36
2022/05/12 10:44:14;;;;;;;5.15;2.50;;;21.20;55.90;;;;;;5086019;28;20111;-36
2022/05/12 10:46:53;;;;;;;73.07;12.43;;;21.20;56.00;;;;;;5093304;28;20075;-34
2022/05/12 10:49:28;;;;;;;100.43;20.92;;;21.20;56.40;;;;;;5084316;28;20016;-34
2022/05/12 10:51:54;;;;;;;98.40;19.98;;;21.20;56.40;;;;;;5085296;28;20055;-34
2022/05/12 10:54:44;;;;;;;101.07;22.83;;;21.20;56.40;;;;;;5085210;28;20024;-34
2022/05/12 10:57:26;;;;;;;102.53;21.48;;;21.20;56.30;;;;;;5083558;28;20046;-34
2022/05/12 11:00:16;;;;;;;102.53;23.35;;;21.10;56.10;;;;;;5083235;28;20494;-34
2022/05/12 11:02:44;;;;;;;95.03;21.10;;;21.10;56.10;;;;;;5082322;28;20061;-34
2022/05/12 11:05:29;;;;;;;92.57;20.27;;;21.10;56.10;;;;;;5085295;28;20032;-34
2022/05/12 11:08:09;;;;;;;76.13;19.95;;;21.10;56.00;;;;;;5078194;28;20039;-34
2022/05/12 11:11:00;;;;;;;82.82;19.15;;;21.10;56.00;;;;;;5091081;28;20035;-34
2022/05/12 11:13:38;;;;;;;80.38;18.35;;;21.10;55.90;;;;;;5083576;28;20061;-34
2022/05/12 11:16:08;;;;;;;69.78;18.48;;;21.00;55.90;;;;;;5088769;28;20048;-35
2022/05/12 11:18:57;;;;;;;75.35;17.45;;;21.00;55.90;;;;;;5087083;28;20815;-33
2022/05/12 11:21:25;;;;;;;81.22;18.80;;;21.00;55.80;;;;;;5089414;28;20028;-41
2022/05/12 11:23:54;;;;;;;67.80;17.75;;;21.00;55.80;;;;;;5086397;28;20032;-42
2022/05/12 11:26:32;;;;;;;57.95;16.38;;;21.00;55.70;;;;;;5085531;28;20173;-43
2022/05/12 11:32:36;;;;;;;55.65;16.77;;;20.90;55.70;;;;;;5083073;28;20036;-40
2022/05/12 11:35:08;;;;;;;62.95;16.65;;;20.90;55.70;;;;;;5087826;28;20067;-42
2022/05/12 11:37:40;;;;;;;61.70;15.77;;;20.90;55.70;;;;;;5082117;28;20060;-40
2022/05/12 11:40:12;;;;;;;48.92;14.95;;;20.90;55.70;;;;;;5083926;28;20044;-41
2022/05/12 11:45:48;;;;;;;46.05;13.52;;;20.90;55.70;;;;;;5096154;28;20054;-41
2022/05/12 11:48:34;;;;;;;50.08;14.32;;;20.90;55.60;;;;;;5092547;28;20032;-43
2022/05/12 11:51:29;;;;;;;45.78;14.30;;;20.90;55.70;;;;;;5082245;28;20028;-41
2022/05/12 11:54:05;;;;;;;45.00;13.93;;;20.80;55.60;;;;;;5083085;28;20033;-41
2022/05/12 11:56:54;;;;;;;47.78;14.20;;;20.80;55.60;;;;;;5082272;28;20100;-40
2022/05/12 11:59:44;;;;;;;48.33;13.80;;;20.80;55.60;;;;;;5077779;28;20039;-40
2022/05/12 12:02:33;;;;;;;47.00;13.10;;;20.80;55.50;;;;;;5085023;28;20488;-40
2022/05/12 12:05:08;;;;;;;47.85;13.02;;;20.80;55.50;;;;;;5084420;28;20037;-40
2022/05/12 12:07:35;;;;;;;41.10;12.88;;;20.80;55.60;;;;;;5081744;28;20056;-41
2022/05/12 12:10:24;;;;;;;38.20;12.60;;;20.70;55.50;;;;;;5096163;28;20032;-40
2022/05/12 12:12:49;;;;;;;;;;;20.70;55.50;;;;;;5079675;28;20644;-43
2022/05/12 12:15:30;;;;;;;36.22;12.13;;;20.70;55.50;;;;;;5078985;28;19909;-42
2022/05/12 12:17:57;;;;;;;38.45;12.90;;;20.70;55.50;;;;;;5083953;28;20046;-43
2022/05/12 12:20:32;;;;;;;37.33;11.50;;;20.70;55.50;;;;;;5080476;28;20087;-43
2022/05/12 12:23:28;;;;;;;34.50;11.27;;;20.70;55.50;;;;;;5104206;28;20044;-43
2022/05/12 12:26:16;;;;;;;34.33;11.02;;;20.70;55.50;;;;;;5102102;28;20032;-43
2022/05/12 12:29:05;;;;;;;33.72;11.27;;;20.70;55.50;;;;;;5085375;28;20040;-42
2022/05/12 12:31:37;;;;;;;37.03;11.38;;;20.60;55.50;;;;;;5085843;28;20032;-42
2022/05/12 12:34:23;;;;;;;32.60;11.65;;;20.60;55.50;;;;;;5082384;28;20024;-43
2022/05/12 12:36:49;;;;;;;33.00;10.68;;;20.60;55.40;;;;;;5092579;28;20032;-43
2022/05/12 12:39:31;;;;;;;33.87;11.10;;;20.60;55.60;;;;;;5088336;28;20086;-43
2022/05/12 12:42:28;;;;;;;26.48;10.15;;;20.60;55.50;;;;;;5066661;28;20029;-43
2022/05/12 12:45:07;;;;;;;31.25;10.82;;;20.60;55.50;;;;;;5079332;28;20035;-43
2022/05/12 12:47:41;;;;;;;27.92;10.48;;;20.60;55.50;;;;;;5080911;28;20067;-43
2022/05/12 12:50:23;;;;;;;28.85;10.07;;;20.60;55.50;;;;;;5094897;28;20042;-43
2022/05/12 12:52:50;;;;;;;23.20;8.70;;;20.60;55.60;;;;;;5096357;28;20024;-42
2022/05/12 12:58:26;;;;;;;26.15;9.35;;;20.50;55.50;;;;;;5088109;28;20108;-43
2022/05/12 13:01:04;;;;;;;23.17;8.95;;;20.50;55.50;;;;;;5079951;28;20070;-44
2022/05/12 13:03:31;;;;;;;27.52;9.48;;;20.50;55.50;;;;;;5087792;28;20039;-44
2022/05/12 13:06:16;;;;;;;28.88;9.45;;;20.50;55.50;;;;;;5087358;28;20055;-43
2022/05/12 13:08:43;;;;;;;26.20;9.60;;;20.50;55.60;;;;;;5089427;28;20043;-43
2022/05/12 13:11:19;;;;;;;21.73;7.97;;;20.50;55.70;;;;;;5081747;28;20173;-44
2022/05/12 13:13:52;;;;;;;26.23;8.65;;;20.50;55.90;;;;;;5080536;28;20028;-42
2022/05/12 13:16:21;;;;;;;22.83;8.73;;;20.50;55.90;;;;;;5081675;28;20020;-43
2022/05/12 13:18:50;;;;;;;22.50;8.27;;;20.50;56.00;;;;;;5081873;28;20066;-44
2022/05/12 13:21:23;;;;;;;24.33;8.20;;;20.50;56.10;;;;;;5082105;28;20039;-43
2022/05/12 13:23:59;;;;;;;19.35;7.57;;;20.50;56.10;;;;;;5081911;28;20040;-41
2022/05/12 13:26:25;;;;;;;19.42;7.22;;;20.50;56.20;;;;;;5078636;28;20056;-43